Flag for French Polynesia

Past Weather in 17°40'53.2"S, 150°37'25.3"W, French Polynesia — Yesterday and Last 2 Weeks

Currently: 77 °F. Partly cloudy. (Weather station: Tahiti-Faaa, French Polynesia). See more current weather

Past Weather in 17°40'53.2"S, 150°37'25.3"W — Graph

°F

17°40'53.2"S, 150°37'25.3"W Temperature Yesterday

Maximum temperature yesterday: 86 °F (at 11:30 am)
Minimum temperature yesterday: 72 °F (at 3:00 am)
Average temperature yesterday: 78 °F

High & Low Weather Summary for the Past Weeks

 TemperatureHumidityPressure
High86 °F (Jun 12, 1:30 pm)94% (Jun 19, 6:30 am)30.07 "Hg (Jun 19, 6:30 am)
Low72 °F (Jun 10, 2:30 am)55% (Jun 13, 1:00 pm)29.92 "Hg (Jun 10, 4:00 am)
Average78 °F74%29.99 "Hg
* Reported Jun 10 12:00 am — Jun 25 12:00 am, 17°40'53.2"S, 150°37'25.3"W. Weather by CustomWeather, © 2022

Note: Actual official high and low records may vary slightly from our data, if they occured in-between our weather recording intervals... More about our weather records

17°40'53.2"S, 150°37'25.3"W Weather History for the Previous 24 Hours

Scroll right to see more
 ConditionsComfort  
Time TempWeatherWind HumidityBarometerVisibility
12:00 am
Sat, Jun 25
77 °FOvercast.3 mph74%30.01 "HgN/A
11:30 pm
Fri, Jun 24
77 °FMostly cloudy.6 mph74%30.01 "HgN/A
11:00 pm77 °FPassing clouds.10 mph74%30.01 "HgN/A
10:30 pm77 °FMostly cloudy.3 mph79%30.01 "HgN/A
10:00 pm77 °FPassing clouds.No wind79%30.01 "HgN/A
9:30 pm77 °FPassing clouds.3 mph79%30.01 "HgN/A
9:00 pm77 °FPassing clouds.2 mph74%30.01 "HgN/A
8:30 pm77 °FPassing clouds.3 mph79%30.01 "HgN/A
8:00 pm77 °FPassing clouds.6 mph74%30.01 "HgN/A
7:00 pm79 °FPassing clouds.2 mph74%29.98 "HgN/A
6:30 pm79 °FPassing clouds.2 mph74%29.98 "HgN/A
6:00 pm79 °FPassing clouds.3 mph70%29.98 "HgN/A
5:30 pm81 °FBroken clouds.2 mph70%29.95 "HgN/A
5:00 pm81 °FBroken clouds.3 mph70%29.95 "HgN/A
4:30 pm81 °FBroken clouds.5 mph66%29.95 "HgN/A
4:00 pm82 °FPartly sunny.5 mph62%29.95 "HgN/A
3:30 pm82 °FPartly sunny.3 mph62%29.95 "HgN/A
3:00 pm82 °FPartly sunny.3 mph66%29.95 "HgN/A
1:30 pm84 °FPartly sunny.3 mph62%29.95 "HgN/A
1:00 pm84 °FPartly sunny.3 mph62%29.95 "HgN/A
12:30 pm86 °FBroken clouds.5 mph59%29.98 "HgN/A
12:00 pm84 °FBroken clouds.3 mph62%29.98 "HgN/A
11:30 am86 °FPartly sunny.5 mph62%29.98 "HgN/A
11:00 am84 °FPartly sunny.6 mph66%30.01 "HgN/A
10:00 am84 °FScattered clouds.7 mph66%30.01 "HgN/A
9:30 am82 °FScattered clouds.7 mph66%30.01 "HgN/A
9:00 am82 °FPassing clouds.7 mph66%30.01 "HgN/A
8:00 am79 °FPassing clouds.5 mph70%30.01 "HgN/A
7:00 am73 °FPassing clouds.6 mph78%29.98 "HgN/A
6:30 am73 °FPassing clouds.7 mph74%29.98 "HgN/A
6:00 am72 °FPassing clouds.5 mph78%29.98 "HgN/A
5:30 am72 °FPassing clouds.5 mph78%29.95 "HgN/A
5:00 am72 °FPassing clouds.5 mph73%29.95 "HgN/A
4:00 am73 °FPassing clouds.5 mph69%29.92 "HgN/A
3:00 am72 °FPassing clouds.5 mph78%29.95 "HgN/A
2:30 am73 °FPassing clouds.6 mph74%29.95 "HgN/A
2:00 am73 °FPassing clouds.5 mph78%29.95 "HgN/A
1:00 am73 °FPassing clouds.6 mph78%29.95 "HgN/A
Weather by CustomWeather, © 2022

See weather overview